Terminal Aerodrome Forecast
Issued by NWS

Home | Current Version | Previous Version | Text Only | Print | Product List | Glossary On
Versions: 1 2 3 4 5 6 7 8 9 10 11 12
000
FTPA31 PHFO 181125
TAFHTO
TAF
PHTO 181125Z 1812/1912 24005KT P6SM VCSH SCT020 BKN040
     FM182000 09011KT P6SM VCSH SCT025 BKN045
     FM190500 24005KT P6SM VCSH SCT020 BKN040=

USA.gov is the U.S. government's official web portal to all federal, state and local government web resources and services.